createdAt,value
2023-05-14T00:02:03.365Z,55.90
2023-05-14T00:04:32.075Z,55.05
2023-05-14T00:07:01.133Z,55.95
2023-05-14T00:09:35.652Z,56.53
2023-05-14T00:12:04.101Z,54.60
2023-05-14T00:14:32.818Z,54.55
2023-05-14T00:17:04.671Z,55.35
2023-05-14T00:19:35.235Z,55.47
2023-05-14T00:22:06.660Z,55.45
2023-05-14T00:24:35.227Z,56.20
2023-05-14T00:27:09.718Z,55.42
2023-05-14T00:29:41.036Z,54.75
2023-05-14T00:32:15.022Z,56.05
2023-05-14T00:34:43.439Z,57.10
2023-05-14T00:37:11.768Z,56.22
2023-05-14T00:39:41.853Z,54.67
2023-05-14T00:42:10.385Z,56.83
2023-05-14T00:44:38.744Z,55.70
2023-05-14T00:47:11.227Z,55.70
2023-05-14T00:49:44.265Z,54.13
2023-05-14T00:52:13.420Z,55.00
2023-05-14T00:54:42.262Z,55.22
2023-05-14T00:57:10.999Z,53.25
2023-05-14T00:59:42.697Z,55.53
2023-05-14T01:02:12.194Z,54.85
2023-05-14T01:04:42.398Z,54.50
2023-05-14T01:07:24.102Z,55.35
2023-05-14T01:09:58.269Z,55.70
2023-05-14T01:12:37.532Z,54.47
2023-05-14T01:15:11.017Z,54.70
2023-05-14T01:17:44.942Z,54.55
2023-05-14T01:20:16.040Z,55.53
2023-05-14T01:22:45.809Z,53.35
2023-05-14T01:25:14.681Z,54.65
2023-05-14T01:27:50.613Z,53.10
2023-05-14T01:30:23.889Z,54.15
2023-05-14T01:32:55.935Z,55.90
2023-05-14T01:35:30.395Z,54.15
2023-05-14T01:38:02.210Z,55.60
2023-05-14T01:40:36.525Z,54.83
2023-05-14T01:43:05.991Z,54.75
2023-05-14T01:45:46.341Z,55.58
2023-05-14T01:48:14.775Z,56.90
2023-05-14T01:50:43.313Z,56.50
2023-05-14T01:53:13.293Z,56.20
2023-05-14T01:55:41.788Z,54.35
2023-05-14T01:58:12.033Z,56.00
2023-05-14T02:00:41.536Z,55.30
2023-05-14T02:03:09.753Z,56.72
2023-05-14T02:05:38.317Z,55.15
2023-05-14T02:08:06.950Z,56.78
2023-05-14T02:10:38.430Z,55.35
2023-05-14T02:13:09.675Z,58.85
2023-05-14T02:15:38.492Z,56.42
2023-05-14T02:18:07.565Z,57.50
2023-05-14T02:20:39.161Z,55.92
2023-05-14T02:23:08.696Z,55.33
2023-05-14T02:25:41.287Z,56.95
2023-05-14T02:28:16.248Z,57.60
2023-05-14T02:30:46.648Z,56.05
2023-05-14T02:33:15.263Z,55.70
2023-05-14T02:35:47.604Z,57.30
2023-05-14T02:38:19.247Z,56.45
2023-05-14T02:40:49.114Z,54.55
2023-05-14T02:43:20.070Z,56.15
2023-05-14T02:45:50.722Z,55.22
2023-05-14T02:48:19.334Z,55.65
2023-05-14T02:50:48.621Z,55.20
2023-05-14T02:53:16.943Z,58.13
2023-05-14T02:55:50.061Z,52.95
2023-05-14T02:58:25.381Z,54.50
2023-05-14T03:00:56.514Z,56.40
2023-05-14T03:03:25.724Z,56.25
2023-05-14T03:05:54.307Z,53.28
2023-05-14T03:08:22.919Z,55.40
2023-05-14T03:10:52.769Z,55.00
2023-05-14T03:13:21.348Z,54.15
2023-05-14T03:15:49.760Z,54.13
2023-05-14T03:18:18.002Z,55.50
2023-05-14T03:20:46.560Z,56.53
2023-05-14T03:23:15.076Z,56.60
2023-05-14T03:25:43.429Z,56.60
2023-05-14T03:28:13.161Z,56.08
2023-05-14T03:30:41.545Z,57.22
2023-05-14T03:33:10.204Z,59.53
2023-05-14T03:35:41.449Z,54.10
2023-05-14T03:38:10.038Z,56.88
2023-05-14T03:40:47.145Z,55.17
2023-05-14T03:43:17.019Z,56.03
2023-05-14T03:45:45.556Z,57.85
2023-05-14T03:48:15.536Z,55.97
2023-05-14T03:50:43.956Z,54.70
2023-05-14T03:53:13.910Z,55.53
2023-05-14T03:55:42.667Z,56.67
2023-05-14T03:58:14.420Z,54.58
2023-05-14T04:00:44.709Z,55.03
2023-05-14T04:03:13.364Z,54.63
2023-05-14T04:05:41.804Z,54.97
2023-05-14T04:08:13.041Z,53.25
2023-05-14T04:10:41.318Z,55.30
2023-05-14T04:13:14.060Z,53.50
2023-05-14T04:15:43.858Z,52.83
2023-05-14T04:18:12.489Z,53.40
2023-05-14T04:20:41.198Z,51.67
2023-05-14T04:23:09.557Z,51.75
2023-05-14T04:25:38.076Z,51.22
2023-05-14T04:28:08.075Z,50.58
2023-05-14T04:30:42.183Z,50.75
2023-05-14T04:33:16.678Z,51.03
2023-05-14T04:35:45.474Z,50.33
2023-05-14T04:38:14.331Z,51.00
2023-05-14T04:40:42.938Z,50.35
2023-05-14T04:43:11.961Z,50.50
2023-05-14T04:45:41.208Z,50.58
2023-05-14T04:48:10.679Z,50.03
2023-05-14T04:50:40.507Z,49.60
2023-05-14T04:53:09.175Z,49.88
2023-05-14T04:55:37.494Z,50.60
2023-05-14T04:58:05.793Z,51.20
2023-05-14T05:00:34.656Z,49.63
2023-05-14T05:03:03.581Z,48.35
2023-05-14T05:05:35.391Z,48.92
2023-05-14T05:08:06.006Z,48.80
2023-05-14T05:10:34.833Z,50.58
2023-05-14T05:13:03.368Z,48.55
2023-05-14T05:15:31.752Z,48.92
2023-05-14T05:18:00.459Z,48.75
2023-05-14T05:20:29.319Z,47.53
2023-05-14T05:22:59.581Z,48.60
2023-05-14T05:25:29.378Z,47.75
2023-05-14T05:27:57.845Z,50.63
2023-05-14T05:30:30.358Z,49.13
2023-05-14T05:32:59.268Z,49.70
2023-05-14T05:35:27.637Z,51.63
2023-05-14T05:37:55.941Z,52.58
2023-05-14T05:40:24.904Z,54.08
2023-05-14T05:42:54.617Z,53.78
2023-05-14T05:45:23.207Z,55.88
2023-05-14T05:47:51.710Z,64.97
2023-05-14T05:50:20.282Z,61.53
2023-05-14T05:52:50.466Z,59.13
2023-05-14T05:55:19.251Z,67.20
2023-05-14T05:57:49.866Z,66.03
2023-05-14T06:00:20.731Z,67.60
2023-05-14T06:02:48.929Z,60.22
2023-05-14T06:05:17.200Z,60.35
2023-05-14T06:07:45.596Z,59.00
2023-05-14T06:10:13.780Z,62.05
2023-05-14T06:12:41.961Z,66.05
2023-05-14T06:15:13.788Z,63.22
2023-05-14T06:17:45.303Z,65.38
2023-05-14T06:20:14.276Z,63.95
2023-05-14T06:22:42.963Z,56.30
2023-05-14T06:25:14.445Z,55.17
2023-05-14T06:27:43.059Z,55.55
2023-05-14T06:30:12.617Z,54.58
2023-05-14T06:32:45.820Z,57.92
2023-05-14T06:35:14.234Z,52.85
2023-05-14T06:37:42.711Z,52.65
2023-05-14T06:40:13.835Z,50.40
2023-05-14T06:42:42.004Z,49.80
2023-05-14T06:45:10.806Z,50.08
2023-05-14T06:47:39.321Z,48.67
2023-05-14T06:50:10.918Z,48.53
2023-05-14T06:52:39.907Z,47.97
2023-05-14T06:55:08.924Z,48.05
2023-05-14T06:57:39.193Z,47.90
2023-05-14T07:00:09.955Z,48.28
2023-05-14T07:02:38.334Z,47.45
2023-05-14T07:05:09.906Z,47.13
2023-05-14T07:07:38.121Z,47.75
2023-05-14T07:10:08.336Z,48.83
2023-05-14T07:12:39.164Z,48.30
2023-05-14T07:15:13.339Z,48.08
2023-05-14T07:17:41.719Z,47.47
2023-05-14T07:20:14.884Z,47.30
2023-05-14T07:22:43.430Z,47.72
2023-05-14T07:25:12.821Z,49.13
2023-05-14T07:27:41.328Z,48.47
2023-05-14T07:30:14.139Z,47.63
2023-05-14T07:32:42.740Z,47.17
2023-05-14T07:35:13.227Z,47.83
2023-05-14T07:37:41.475Z,47.47
2023-05-14T07:40:10.799Z,49.38
2023-05-14T07:42:39.019Z,48.58
2023-05-14T07:45:09.995Z,48.03
2023-05-14T07:47:40.328Z,49.83
2023-05-14T07:50:14.029Z,50.95
2023-05-14T07:52:44.338Z,49.20
2023-05-14T07:55:14.120Z,49.08
2023-05-14T07:57:44.819Z,48.80
2023-05-14T08:00:16.975Z,49.78
2023-05-14T08:02:45.563Z,48.70
2023-05-14T08:05:14.149Z,47.35
2023-05-14T08:07:44.653Z,47.80
2023-05-14T08:10:15.371Z,48.72
2023-05-14T08:12:43.788Z,49.90
2023-05-14T08:15:12.633Z,47.97
2023-05-14T08:17:41.282Z,48.92
2023-05-14T08:20:12.213Z,47.83
2023-05-14T08:22:40.523Z,46.13
2023-05-14T08:25:10.790Z,49.65
2023-05-14T08:27:39.035Z,48.83
2023-05-14T08:30:08.385Z,48.88
2023-05-14T08:32:38.560Z,51.30
2023-05-14T08:35:08.600Z,50.03
2023-05-14T08:37:37.079Z,50.85
2023-05-14T08:40:05.937Z,52.90
2023-05-14T08:42:36.718Z,50.65
2023-05-14T08:45:07.234Z,51.58
2023-05-14T08:47:39.270Z,51.78
2023-05-14T08:50:09.120Z,53.35
2023-05-14T08:52:49.843Z,54.83
2023-05-14T08:55:18.348Z,54.47
2023-05-14T08:57:47.957Z,54.38
2023-05-14T09:00:16.634Z,58.03
2023-05-14T09:02:46.265Z,54.25
2023-05-14T09:05:16.319Z,54.55
2023-05-14T09:07:44.513Z,53.95
2023-05-14T09:10:12.965Z,55.10
2023-05-14T09:12:41.194Z,54.15
2023-05-14T09:15:11.701Z,54.30
2023-05-14T09:17:39.836Z,54.45
2023-05-14T09:20:12.345Z,54.55
2023-05-14T09:22:41.038Z,55.00
2023-05-14T09:25:16.219Z,56.10
2023-05-14T09:27:50.603Z,56.35
2023-05-14T09:30:44.450Z,55.95
2023-05-14T09:33:13.047Z,57.78
2023-05-14T09:35:43.500Z,57.97
2023-05-14T09:38:14.856Z,57.38
2023-05-14T09:40:49.506Z,59.15
2023-05-14T09:43:20.044Z,58.75
2023-05-14T09:45:50.357Z,60.35
2023-05-14T09:48:26.141Z,60.53
2023-05-14T09:50:57.568Z,59.72
2023-05-14T09:53:26.169Z,56.85
2023-05-14T09:55:54.264Z,58.35
2023-05-14T09:58:23.012Z,60.45
2023-05-14T10:00:56.205Z,62.70
2023-05-14T10:03:28.834Z,63.90
2023-05-14T10:06:16.607Z,61.90
2023-05-14T10:08:57.214Z,64.10
2023-05-14T10:11:43.915Z,64.03
2023-05-14T10:14:37.775Z,65.82
2023-05-14T10:17:23.805Z,65.30
2023-05-14T10:19:57.699Z,66.65
2023-05-14T10:22:35.446Z,69.13
2023-05-14T10:25:16.343Z,66.68
2023-05-14T10:27:45.752Z,68.55
2023-05-14T10:30:14.368Z,65.95
2023-05-14T10:32:44.421Z,67.55
2023-05-14T10:35:20.896Z,66.97
2023-05-14T10:37:54.273Z,68.68
2023-05-14T10:40:26.174Z,68.35
2023-05-14T10:42:56.033Z,69.82
2023-05-14T10:45:25.274Z,65.85
2023-05-14T10:47:57.447Z,67.57
2023-05-14T10:50:26.023Z,65.22
2023-05-14T10:52:55.426Z,65.45
2023-05-14T10:55:23.556Z,66.95
2023-05-14T10:57:53.565Z,61.92
2023-05-14T11:00:21.778Z,60.00
2023-05-14T11:02:50.731Z,56.38
2023-05-14T11:05:23.401Z,55.38
2023-05-14T11:07:51.968Z,53.13
2023-05-14T11:10:22.129Z,52.83
2023-05-14T11:12:53.873Z,46.13
2023-05-14T11:15:23.224Z,45.60
2023-05-14T11:17:54.587Z,46.42
2023-05-14T11:20:24.656Z,44.72
2023-05-14T11:22:52.947Z,44.95
2023-05-14T11:25:22.950Z,38.65
2023-05-14T11:27:51.887Z,40.88
2023-05-14T11:30:21.097Z,27.52
2023-05-14T11:32:50.913Z,28.27
2023-05-14T11:35:19.357Z,18.20
2023-05-14T11:37:53.360Z,17.10
2023-05-14T11:40:22.008Z,17.58
2023-05-14T11:42:53.191Z,12.70
2023-05-14T11:45:26.794Z,14.25
2023-05-14T11:47:56.149Z,16.95
2023-05-14T11:50:24.822Z,16.05
2023-05-14T11:52:57.919Z,15.82
2023-05-14T11:55:26.187Z,14.40
2023-05-14T11:57:55.635Z,11.32
2023-05-14T12:00:25.164Z,15.38
2023-05-14T12:02:53.983Z,12.95
2023-05-14T12:05:22.455Z,12.27
2023-05-14T12:07:50.762Z,11.75
2023-05-14T12:10:23.508Z,12.15
2023-05-14T12:12:58.596Z,11.48
2023-05-14T12:15:26.923Z,14.20
2023-05-14T12:17:55.359Z,10.75
2023-05-14T12:20:26.271Z,11.70
2023-05-14T12:22:55.579Z,14.07
2023-05-14T12:25:27.194Z,14.35
2023-05-14T12:27:55.396Z,11.18
2023-05-14T12:30:23.614Z,10.80
2023-05-14T12:32:53.300Z,11.95
2023-05-14T12:35:23.386Z,10.90
2023-05-14T12:37:51.696Z,15.30
2023-05-14T12:40:20.016Z,12.95
2023-05-14T12:42:50.558Z,10.00
2023-05-14T12:45:18.798Z,12.20
2023-05-14T12:47:49.364Z,14.10
2023-05-14T12:50:19.057Z,10.57
2023-05-14T12:52:47.761Z,12.25
2023-05-14T12:55:15.827Z,12.48
2023-05-14T12:57:44.054Z,13.15
2023-05-14T13:00:16.467Z,12.05
2023-05-14T13:02:45.054Z,12.88
2023-05-14T13:05:13.730Z,10.95
2023-05-14T13:07:42.325Z,11.40
2023-05-14T13:10:11.532Z,14.48
2023-05-14T13:12:40.065Z,13.23
2023-05-14T13:15:09.371Z,13.02
2023-05-14T13:17:39.065Z,14.60
2023-05-14T13:20:09.289Z,10.93
2023-05-14T13:22:37.602Z,12.77
2023-05-14T13:25:06.479Z,14.50
2023-05-14T13:27:35.942Z,14.10
2023-05-14T13:30:04.571Z,12.50
2023-05-14T13:32:32.981Z,11.68
2023-05-14T13:35:02.861Z,13.93
2023-05-14T13:37:31.067Z,15.35
2023-05-14T13:39:59.452Z,15.40
2023-05-14T13:42:27.720Z,15.00
2023-05-14T13:44:58.076Z,13.98
2023-05-14T13:47:27.191Z,15.52
2023-05-14T13:49:55.874Z,13.07
2023-05-14T13:52:25.692Z,13.20
2023-05-14T13:54:57.852Z,11.68
2023-05-14T13:57:26.135Z,10.75
2023-05-14T13:59:54.854Z,12.82
2023-05-14T14:02:23.605Z,15.27
2023-05-14T14:04:51.731Z,15.15
2023-05-14T14:07:21.414Z,13.30
2023-05-14T14:09:51.217Z,11.15
2023-05-14T14:12:21.392Z,14.30
2023-05-14T14:14:49.626Z,16.83
2023-05-14T14:17:17.679Z,13.82
2023-05-14T14:19:46.479Z,12.57
2023-05-14T14:22:17.425Z,12.63
2023-05-14T14:24:46.054Z,13.93
2023-05-14T14:27:16.115Z,13.10
2023-05-14T14:29:44.255Z,13.48
2023-05-14T14:32:12.550Z,14.68
2023-05-14T14:34:41.389Z,16.08
2023-05-14T14:37:09.766Z,12.20
2023-05-14T14:39:38.000Z,15.55
2023-05-14T14:42:07.053Z,15.82
2023-05-14T14:44:36.833Z,13.43
2023-05-14T14:47:05.652Z,11.27
2023-05-14T14:49:34.097Z,15.13
2023-05-14T14:52:02.468Z,16.48
2023-05-14T14:54:32.458Z,14.05
2023-05-14T14:57:00.833Z,13.32
2023-05-14T14:59:29.195Z,12.27
2023-05-14T15:02:01.751Z,16.48
2023-05-14T15:04:32.871Z,14.95
2023-05-14T15:07:07.396Z,14.05
2023-05-14T15:09:36.406Z,12.75
2023-05-14T15:12:07.979Z,16.13
2023-05-14T15:14:39.872Z,13.13
2023-05-14T15:17:10.195Z,9.95
2023-05-14T15:19:40.825Z,11.13
2023-05-14T15:22:09.275Z,11.20
2023-05-14T15:24:41.177Z,14.15
2023-05-14T15:27:09.492Z,12.52
2023-05-14T15:29:37.841Z,17.15
2023-05-14T15:32:06.796Z,16.67
2023-05-14T15:34:36.417Z,9.85
2023-05-14T15:37:04.836Z,11.88
2023-05-14T15:39:36.094Z,12.43
2023-05-14T15:42:05.051Z,14.68
2023-05-14T15:44:33.589Z,9.77
2023-05-14T15:47:03.045Z,12.35
2023-05-14T15:49:33.334Z,14.18
2023-05-14T15:52:03.461Z,13.82
2023-05-14T15:54:31.891Z,13.30
2023-05-14T15:57:04.364Z,11.75
2023-05-14T15:59:32.633Z,11.77
2023-05-14T16:02:04.329Z,11.85
2023-05-14T16:04:32.815Z,12.70
2023-05-14T16:07:05.932Z,16.27
2023-05-14T16:09:37.654Z,13.85
2023-05-14T16:12:14.140Z,9.20
2023-05-14T16:14:48.149Z,11.05
2023-05-14T16:17:19.452Z,11.45
2023-05-14T16:20:08.615Z,9.63
2023-05-14T16:22:39.524Z,9.48
2023-05-14T16:25:11.261Z,14.77
2023-05-14T16:27:39.540Z,13.15
2023-05-14T16:30:09.277Z,11.90
2023-05-14T16:32:37.511Z,11.60
2023-05-14T16:35:06.226Z,9.70
2023-05-14T16:37:34.826Z,10.77
2023-05-14T16:40:05.597Z,9.40
2023-05-14T16:42:33.875Z,18.27
2023-05-14T16:45:02.107Z,15.25
2023-05-14T16:47:30.521Z,10.13
2023-05-14T16:49:59.009Z,9.52
2023-05-14T16:52:27.243Z,10.30
2023-05-14T16:54:57.503Z,12.18
2023-05-14T16:57:27.686Z,9.43
2023-05-14T16:59:56.584Z,10.43
2023-05-14T17:02:26.142Z,14.35
2023-05-14T17:04:55.278Z,10.15
2023-05-14T17:07:23.644Z,12.43
2023-05-14T17:09:51.790Z,11.13
2023-05-14T17:12:19.928Z,10.18
2023-05-14T17:14:49.520Z,12.40
2023-05-14T17:17:20.479Z,10.15
2023-05-14T17:19:50.078Z,11.82
2023-05-14T17:22:18.168Z,11.40
2023-05-14T17:24:46.377Z,10.90
2023-05-14T17:27:16.575Z,12.23
2023-05-14T17:29:44.916Z,13.18
2023-05-14T17:32:14.752Z,10.60
2023-05-14T17:34:43.279Z,11.82
2023-05-14T17:37:11.556Z,10.30
2023-05-14T17:39:39.676Z,11.52
2023-05-14T17:42:09.222Z,9.90
2023-05-14T17:44:37.707Z,11.38
2023-05-14T17:47:07.432Z,11.38
2023-05-14T17:49:37.139Z,15.43
2023-05-14T17:52:06.201Z,15.63
2023-05-14T17:54:34.940Z,14.63
2023-05-14T17:57:03.722Z,19.27
2023-05-14T17:59:31.928Z,26.58
2023-05-14T18:02:00.358Z,23.48
2023-05-14T18:04:28.738Z,23.98
2023-05-14T18:06:58.519Z,18.92
2023-05-14T18:09:26.713Z,28.42
2023-05-14T18:11:56.900Z,35.50
2023-05-14T18:14:25.452Z,33.53
2023-05-14T18:16:54.139Z,29.08
2023-05-14T18:19:22.361Z,35.40
2023-05-14T18:21:50.861Z,40.55
2023-05-14T18:24:22.070Z,40.17
2023-05-14T18:26:50.479Z,39.58
2023-05-14T18:29:18.666Z,50.75
2023-05-14T18:31:47.001Z,56.47
2023-05-14T18:34:15.365Z,58.30
2023-05-14T18:36:43.754Z,59.42
2023-05-14T18:39:14.660Z,59.78
2023-05-14T18:41:44.679Z,59.67
2023-05-14T18:44:13.032Z,59.85
2023-05-14T18:46:41.591Z,60.08
2023-05-14T18:49:09.965Z,60.05
2023-05-14T18:51:40.426Z,62.60
2023-05-14T18:54:08.856Z,61.67
2023-05-14T18:56:40.072Z,60.50
2023-05-14T18:59:10.293Z,62.33
2023-05-14T19:01:41.959Z,62.80
2023-05-14T19:04:13.194Z,63.63
2023-05-14T19:06:41.752Z,61.28
2023-05-14T19:09:10.989Z,60.83
2023-05-14T19:11:39.352Z,60.58
2023-05-14T19:14:07.638Z,60.50
2023-05-14T19:16:37.329Z,60.33
2023-05-14T19:19:05.986Z,59.35
2023-05-14T19:21:35.838Z,58.13
2023-05-14T19:24:06.081Z,59.08
2023-05-14T19:26:34.563Z,60.17
2023-05-14T19:29:19.332Z,57.88
2023-05-14T19:31:50.459Z,58.30
2023-05-14T19:34:36.815Z,56.47
2023-05-14T19:37:06.190Z,54.55
2023-05-14T19:39:35.045Z,54.53
2023-05-14T19:42:05.682Z,54.47
2023-05-14T19:44:35.412Z,54.08
2023-05-14T19:47:05.728Z,53.90
2023-05-14T19:49:34.095Z,51.45
2023-05-14T19:52:02.388Z,52.45
2023-05-14T19:54:30.911Z,52.30
2023-05-14T19:56:59.354Z,51.35
2023-05-14T19:59:29.680Z,52.53
2023-05-14T20:01:58.000Z,52.75
2023-05-14T20:04:28.336Z,52.90
2023-05-14T20:06:59.437Z,51.60
2023-05-14T20:09:27.960Z,53.33
2023-05-14T20:11:56.423Z,51.38
2023-05-14T20:14:24.969Z,53.03
2023-05-14T20:16:53.338Z,50.80
2023-05-14T20:19:24.649Z,49.92
2023-05-14T20:21:54.681Z,50.00
2023-05-14T20:24:25.927Z,51.30
2023-05-14T20:26:54.265Z,50.83
2023-05-14T20:29:22.537Z,51.20
2023-05-14T20:31:54.762Z,51.03
2023-05-14T20:34:25.054Z,52.38
2023-05-14T20:36:55.366Z,51.85
2023-05-14T20:39:23.732Z,51.25
2023-05-14T20:41:52.259Z,51.95
2023-05-14T20:44:20.756Z,52.33
2023-05-14T20:46:49.759Z,52.05
2023-05-14T20:49:18.357Z,53.22
2023-05-14T20:51:49.345Z,51.90
2023-05-14T20:54:23.608Z,51.80
2023-05-14T20:56:52.367Z,51.17
2023-05-14T20:59:20.663Z,49.25
2023-05-14T21:01:49.525Z,50.60
2023-05-14T21:04:18.100Z,50.15
2023-05-14T21:06:46.456Z,49.90
2023-05-14T21:09:14.784Z,49.60
2023-05-14T21:11:46.839Z,49.42
2023-05-14T21:14:15.199Z,48.95
2023-05-14T21:16:43.797Z,48.38
2023-05-14T21:19:14.057Z,50.70
2023-05-14T21:21:43.888Z,49.63
2023-05-14T21:24:16.915Z,48.78
2023-05-14T21:26:46.822Z,49.58
2023-05-14T21:29:17.879Z,51.53
2023-05-14T21:31:52.346Z,50.38
2023-05-14T21:34:20.972Z,50.00
2023-05-14T21:36:49.409Z,49.35
2023-05-14T21:39:17.724Z,48.92
2023-05-14T21:41:47.503Z,49.42
2023-05-14T21:44:17.861Z,50.10
2023-05-14T21:46:47.404Z,50.83
2023-05-14T21:49:15.942Z,48.88
2023-05-14T21:51:52.866Z,50.28
2023-05-14T21:54:21.723Z,48.97
2023-05-14T21:56:51.616Z,51.97
2023-05-14T21:59:19.943Z,53.13
2023-05-14T22:02:05.668Z,53.17
2023-05-14T22:04:35.631Z,52.10
2023-05-14T22:07:04.225Z,52.47
2023-05-14T22:09:34.764Z,50.33
2023-05-14T22:12:04.764Z,51.22
2023-05-14T22:14:33.266Z,51.80
2023-05-14T22:17:01.576Z,50.63
2023-05-14T22:19:33.587Z,52.00
2023-05-14T22:22:01.949Z,51.40
2023-05-14T22:24:30.184Z,51.88
2023-05-14T22:26:58.378Z,51.30
2023-05-14T22:29:28.427Z,50.90
2023-05-14T22:31:56.711Z,50.65
2023-05-14T22:34:28.259Z,52.97
2023-05-14T22:36:56.821Z,51.70
2023-05-14T22:39:25.135Z,52.35
2023-05-14T22:41:55.307Z,51.83
2023-05-14T22:44:27.714Z,53.33
2023-05-14T22:46:59.424Z,53.53
2023-05-14T22:49:27.751Z,54.30
2023-05-14T22:51:55.848Z,54.67
2023-05-14T22:54:24.219Z,54.78
2023-05-14T22:56:52.674Z,53.28
2023-05-14T22:59:24.016Z,55.08
2023-05-14T23:01:53.738Z,54.78
2023-05-14T23:04:23.787Z,56.33
2023-05-14T23:06:52.280Z,55.30
2023-05-14T23:09:22.397Z,55.97
2023-05-14T23:11:50.925Z,56.30
2023-05-14T23:14:19.882Z,58.40
2023-05-14T23:16:48.357Z,55.58
2023-05-14T23:19:20.254Z,55.67
2023-05-14T23:21:50.322Z,54.90
2023-05-14T23:24:20.642Z,54.58
2023-05-14T23:26:49.270Z,54.78
2023-05-14T23:29:17.691Z,56.53
2023-05-14T23:31:46.106Z,56.42
2023-05-14T23:34:14.466Z,57.03
2023-05-14T23:36:43.462Z,55.03
2023-05-14T23:39:13.029Z,56.50
2023-05-14T23:41:41.306Z,57.50
2023-05-14T23:44:09.628Z,57.65
2023-05-14T23:46:38.064Z,58.28
2023-05-14T23:49:08.165Z,59.30
2023-05-14T23:51:39.497Z,60.08
2023-05-14T23:54:07.786Z,56.75
2023-05-14T23:56:37.456Z,56.78
2023-05-14T23:59:05.579Z,55.83
